Time;durP1;ratioP1;P1;durP2;ratioP2;P2;SDS_P1;SDS_P2;PMS_P1;PMS_P2;Temp;Humidity;BMP_temperature;BMP_pressure;BME280_temperature;BME280_humidity;BME280_pressure;Samples;Min_cycle;Max_cycle;Signal;HPM_P1;HPM_P2
2022/07/23 00:00:36;;;;;;;0.68;0.68;;;23.10;54.70;;;;;;6191926;28;20362;-67
2022/07/23 00:03:37;;;;;;;0.70;0.55;;;23.10;54.70;;;;;;6192244;28;20019;-67
2022/07/23 00:06:37;;;;;;;0.85;0.60;;;23.20;54.80;;;;;;6185373;28;20015;-68
2022/07/23 00:09:38;;;;;;;0.80;0.80;;;23.10;54.70;;;;;;6167548;28;20027;-67
2022/07/23 00:12:39;;;;;;;0.85;0.68;;;23.10;54.70;;;;;;6181849;28;20517;-67
2022/07/23 00:15:40;;;;;;;0.52;0.50;;;23.10;54.70;;;;;;6191704;28;20027;-67
2022/07/23 00:18:41;;;;;;;0.60;0.60;;;23.10;54.70;;;;;;6170176;28;20497;-67
2022/07/23 00:21:41;;;;;;;0.50;0.50;;;23.10;54.70;;;;;;6171922;28;20022;-67
2022/07/23 00:24:42;;;;;;;1.63;0.90;;;23.10;54.70;;;;;;6191465;28;20077;-67
2022/07/23 00:27:44;;;;;;;0.57;0.57;;;23.10;54.70;;;;;;6191296;28;20080;-67
2022/07/23 00:30:45;;;;;;;0.68;0.68;;;23.10;54.80;;;;;;6185174;28;20035;-67
2022/07/23 00:33:45;;;;;;;0.40;0.40;;;23.10;54.70;;;;;;6187247;28;20029;-67
2022/07/23 00:36:46;;;;;;;1.02;0.90;;;23.10;54.80;;;;;;6187724;28;20663;-67
2022/07/23 00:39:47;;;;;;;0.80;0.80;;;23.10;54.70;;;;;;6173661;28;20109;-67
2022/07/23 00:42:47;;;;;;;0.80;0.60;;;23.10;54.80;;;;;;6180384;28;20497;-67
2022/07/23 00:45:48;;;;;;;0.55;0.50;;;23.10;54.80;;;;;;6167186;28;20538;-67
2022/07/23 00:48:49;;;;;;;0.55;0.52;;;23.10;54.70;;;;;;6185953;28;20133;-67
2022/07/23 00:51:50;;;;;;;0.80;0.70;;;23.10;54.70;;;;;;6189141;28;20373;-67
2022/07/23 00:54:51;;;;;;;0.70;0.70;;;23.10;54.70;;;;;;6180322;28;20038;-67
2022/07/23 00:57:53;;;;;;;1.27;0.85;;;23.10;54.80;;;;;;6190835;28;20030;-67
2022/07/23 01:00:54;;;;;;;1.13;0.82;;;23.10;54.70;;;;;;6186940;28;20089;-67
2022/07/23 01:03:54;;;;;;;0.85;0.60;;;23.10;54.80;;;;;;6184800;28;20026;-67
2022/07/23 01:06:55;;;;;;;0.63;0.55;;;23.10;54.80;;;;;;6194773;28;20030;-67
2022/07/23 01:09:56;;;;;;;0.60;0.60;;;23.10;54.80;;;;;;6172013;28;20094;-67
2022/07/23 01:13:08;;;;;;;0.70;0.70;;;23.10;54.80;;;;;;6179710;28;20030;-67
2022/07/23 01:16:09;;;;;;;1.10;0.80;;;23.10;54.80;;;;;;6195841;28;20062;-67
2022/07/23 01:19:10;;;;;;;0.50;0.50;;;23.10;54.80;;;;;;6178145;28;20508;-67
2022/07/23 01:22:11;;;;;;;0.63;0.63;;;23.10;54.80;;;;;;6171987;28;20026;-67
2022/07/23 01:25:12;;;;;;;0.90;0.77;;;23.10;54.80;;;;;;6194796;28;20077;-67
2022/07/23 01:28:13;;;;;;;0.77;0.60;;;23.10;54.80;;;;;;6177674;28;20030;-67
2022/07/23 01:31:13;;;;;;;0.70;0.70;;;23.10;54.80;;;;;;6185695;28;20025;-67
2022/07/23 01:34:14;;;;;;;0.90;0.70;;;23.10;54.80;;;;;;6187036;28;20421;-67
2022/07/23 01:37:15;;;;;;;0.60;0.60;;;23.10;54.80;;;;;;6195644;28;20121;-67
2022/07/23 01:40:15;;;;;;;0.70;0.70;;;23.10;54.80;;;;;;6181672;28;20034;-67
2022/07/23 01:43:16;;;;;;;0.65;0.65;;;23.10;54.80;;;;;;6183988;28;20050;-67
2022/07/23 01:46:17;;;;;;;0.68;0.60;;;23.10;54.80;;;;;;6170955;28;20063;-67
2022/07/23 01:49:17;;;;;;;0.82;0.70;;;23.10;54.90;;;;;;6185105;28;20076;-67
2022/07/23 01:52:18;;;;;;;0.95;0.70;;;23.10;54.80;;;;;;6194850;28;20026;-67
2022/07/23 01:55:19;;;;;;;0.63;0.55;;;23.10;54.80;;;;;;6189970;28;20030;-67
2022/07/23 01:58:20;;;;;;;1.10;0.95;;;23.10;54.80;;;;;;6185364;28;20038;-67
2022/07/23 02:01:20;;;;;;;0.75;0.70;;;23.10;54.80;;;;;;6194527;28;20035;-67
2022/07/23 02:04:22;;;;;;;0.60;0.60;;;23.10;54.80;;;;;;6182035;28;20035;-67
2022/07/23 02:07:22;;;;;;;1.35;0.90;;;23.10;54.80;;;;;;6170483;28;20042;-67
2022/07/23 02:10:23;;;;;;;0.50;0.50;;;23.10;54.80;;;;;;6191100;28;20501;-67
2022/07/23 02:13:24;;;;;;;0.95;0.80;;;23.10;54.90;;;;;;6190720;28;20304;-67
2022/07/23 02:16:25;;;;;;;1.10;0.68;;;23.10;54.80;;;;;;6169530;28;20382;-67
2022/07/23 02:19:25;;;;;;;0.82;0.65;;;23.10;54.90;;;;;;6181325;28;20141;-67
2022/07/23 02:22:26;;;;;;;0.93;0.70;;;23.10;54.80;;;;;;6194561;28;20039;-68
2022/07/23 02:25:26;;;;;;;0.73;0.65;;;23.10;54.90;;;;;;6175415;28;20456;-67
2022/07/23 02:28:27;;;;;;;0.52;0.50;;;23.10;54.90;;;;;;6172259;28;20026;-68
2022/07/23 02:31:29;;;;;;;0.70;0.60;;;23.10;54.90;;;;;;6193542;28;20397;-67
2022/07/23 02:34:30;;;;;;;0.70;0.63;;;23.10;54.90;;;;;;6184548;28;20402;-67
2022/07/23 02:37:30;;;;;;;0.63;0.63;;;23.10;54.90;;;;;;6169399;28;20043;-67
2022/07/23 02:40:31;;;;;;;0.70;0.60;;;23.10;54.90;;;;;;6174832;28;20062;-67
2022/07/23 02:43:32;;;;;;;1.00;0.82;;;23.10;54.90;;;;;;6170444;28;20041;-67
2022/07/23 02:46:32;;;;;;;0.82;0.80;;;23.10;54.90;;;;;;6194135;28;20026;-67
2022/07/23 02:49:33;;;;;;;0.63;0.63;;;23.10;54.90;;;;;;6185163;28;20039;-67
2022/07/23 02:52:34;;;;;;;0.65;0.65;;;23.10;54.90;;;;;;6169659;28;20066;-67
2022/07/23 02:55:35;;;;;;;0.75;0.70;;;23.10;54.90;;;;;;6189094;28;20053;-67
2022/07/23 02:58:35;;;;;;;0.65;0.65;;;23.10;54.90;;;;;;6193628;28;20073;-67
2022/07/23 03:01:36;;;;;;;0.82;0.60;;;23.10;54.90;;;;;;6169898;28;20027;-67
2022/07/23 03:04:37;;;;;;;0.93;0.80;;;23.10;55.00;;;;;;6175996;28;20085;-67
2022/07/23 03:07:37;;;;;;;0.80;0.80;;;23.10;54.90;;;;;;6193401;28;20547;-67
2022/07/23 03:10:38;;;;;;;0.60;0.60;;;23.10;54.90;;;;;;6178831;28;20102;-67
2022/07/23 03:13:40;;;;;;;1.13;0.90;;;23.10;55.00;;;;;;6169057;28;20031;-67
2022/07/23 03:16:40;;;;;;;0.77;0.70;;;23.10;54.90;;;;;;6190694;28;20030;-67
2022/07/23 03:19:41;;;;;;;1.02;0.93;;;23.10;54.90;;;;;;6187714;28;20094;-67
2022/07/23 03:22:42;;;;;;;0.70;0.70;;;23.10;54.90;;;;;;6168980;28;20244;-67
2022/07/23 03:25:42;;;;;;;0.82;0.77;;;23.10;54.90;;;;;;6184169;28;20066;-67
2022/07/23 03:28:43;;;;;;;0.70;0.70;;;23.10;55.00;;;;;;6191992;28;20026;-68
2022/07/23 03:31:44;;;;;;;0.70;0.60;;;23.10;55.00;;;;;;6171848;28;20031;-67
2022/07/23 03:34:44;;;;;;;0.70;0.70;;;23.10;55.00;;;;;;6172220;28;20019;-67
2022/07/23 03:37:45;;;;;;;0.75;0.73;;;23.10;55.00;;;;;;6192316;28;20027;-67
2022/07/23 03:40:45;;;;;;;0.60;0.52;;;23.10;55.00;;;;;;6189608;28;20026;-68
2022/07/23 03:43:46;;;;;;;0.50;0.50;;;23.10;55.00;;;;;;6192267;28;20050;-67
2022/07/23 03:46:47;;;;;;;0.70;0.68;;;23.10;55.00;;;;;;6174017;28;20102;-67
2022/07/23 03:49:49;;;;;;;0.80;0.80;;;23.10;55.00;;;;;;6169603;28;20051;-67
2022/07/23 03:52:49;;;;;;;0.88;0.80;;;23.10;55.00;;;;;;6192023;28;20472;-67
2022/07/23 03:55:50;;;;;;;0.68;0.68;;;23.10;55.00;;;;;;6191916;28;20019;-67
2022/07/23 03:58:51;;;;;;;0.95;0.90;;;23.10;55.00;;;;;;6192634;28;20113;-68
2022/07/23 04:01:51;;;;;;;1.05;0.90;;;23.10;55.00;;;;;;6192355;28;20022;-67
2022/07/23 04:04:52;;;;;;;0.70;0.70;;;23.10;55.00;;;;;;6191050;28;20085;-67
2022/07/23 04:07:52;;;;;;;0.70;0.70;;;23.10;55.00;;;;;;6167749;28;20023;-68
2022/07/23 04:10:53;;;;;;;0.70;0.70;;;23.10;55.00;;;;;;6175899;28;20022;-67
2022/07/23 04:13:54;;;;;;;0.60;0.60;;;23.10;55.00;;;;;;6190460;28;20556;-67
2022/07/23 04:16:54;;;;;;;0.95;0.80;;;23.10;55.00;;;;;;6175922;28;20033;-67
2022/07/23 04:19:55;;;;;;;0.70;0.60;;;23.10;55.00;;;;;;6167277;28;20683;-67
2022/07/23 04:22:55;;;;;;;0.80;0.80;;;23.10;55.00;;;;;;6190793;28;20134;-67
2022/07/23 04:25:56;;;;;;;0.77;0.73;;;23.10;55.10;;;;;;6191243;28;20093;-67
2022/07/23 04:28:57;;;;;;;0.63;0.63;;;23.10;55.00;;;;;;6191000;28;20039;-67
2022/07/23 04:31:57;;;;;;;1.17;0.80;;;23.10;55.10;;;;;;6190005;28;20056;-67
2022/07/23 04:34:58;;;;;;;0.70;0.70;;;23.10;55.00;;;;;;6191070;28;20503;-67
2022/07/23 04:37:59;;;;;;;1.80;0.80;;;23.10;55.00;;;;;;6169288;28;20027;-68
2022/07/23 04:41:00;;;;;;;0.73;0.68;;;23.10;55.00;;;;;;6179907;28;20418;-67
2022/07/23 04:44:02;;;;;;;0.60;0.60;;;23.10;55.00;;;;;;6167094;28;20033;-67
2022/07/23 04:47:02;;;;;;;0.63;0.60;;;23.10;55.00;;;;;;6180366;28;20065;-67
2022/07/23 04:50:03;;;;;;;0.47;0.47;;;23.10;55.10;;;;;;6191160;28;20050;-67
2022/07/23 04:53:04;;;;;;;0.90;0.68;;;23.10;55.00;;;;;;6170877;28;20146;-67
2022/07/23 04:56:05;;;;;;;1.23;0.90;;;23.10;55.00;;;;;;6190633;28;20038;-67
2022/07/23 05:03:03;;;;;;;0.60;0.60;;;23.10;55.00;;;;;;6189859;28;20051;-67
2022/07/23 05:06:04;;;;;;;0.80;0.80;;;23.10;55.00;;;;;;6191323;28;20551;-68
2022/07/23 05:09:04;;;;;;;1.13;0.77;;;23.10;55.00;;;;;;6191137;28;20037;-67
2022/07/23 05:12:05;;;;;;;0.70;0.70;;;23.10;55.10;;;;;;6183271;28;20030;-68
2022/07/23 05:15:06;;;;;;;0.65;0.60;;;23.10;55.00;;;;;;6191798;28;20441;-67
2022/07/23 05:18:07;;;;;;;0.60;0.60;;;23.10;55.00;;;;;;6168970;28;20137;-67
2022/07/23 05:21:07;;;;;;;0.50;0.50;;;23.10;55.00;;;;;;6167447;28;20027;-67
2022/07/23 05:24:08;;;;;;;0.60;0.60;;;23.10;55.00;;;;;;6191089;28;20054;-67
2022/07/23 05:27:08;;;;;;;0.75;0.70;;;23.10;55.70;;;;;;6182871;28;20722;-67
2022/07/23 05:30:10;;;;;;;0.80;0.73;;;23.10;55.00;;;;;;6166497;28;20533;-68
2022/07/23 05:33:10;;;;;;;0.70;0.70;;;23.10;55.10;;;;;;6182219;28;20041;-67
2022/07/23 05:36:11;;;;;;;0.88;0.80;;;23.10;55.00;;;;;;6190779;28;20484;-67
2022/07/23 05:39:11;;;;;;;0.85;0.60;;;23.10;55.10;;;;;;6170023;28;20035;-67
2022/07/23 05:42:12;;;;;;;0.80;0.60;;;23.10;55.10;;;;;;6184765;28;20030;-67
2022/07/23 05:45:13;;;;;;;1.25;0.80;;;23.10;55.10;;;;;;6166530;28;20067;-68
2022/07/23 05:48:13;;;;;;;0.50;0.50;;;23.10;55.10;;;;;;6181462;28;20053;-67
2022/07/23 05:51:14;;;;;;;0.52;0.52;;;23.10;55.10;;;;;;6193663;28;20149;-68
2022/07/23 05:54:15;;;;;;;0.77;0.60;;;23.10;55.10;;;;;;6182693;28;20030;-68
2022/07/23 05:57:15;;;;;;;0.60;0.60;;;23.10;55.10;;;;;;6195754;28;20041;-68
2022/07/23 06:00:16;;;;;;;0.50;0.50;;;23.10;55.10;;;;;;6195006;28;20096;-68
2022/07/23 06:03:17;;;;;;;0.60;0.60;;;23.10;55.10;;;;;;6182342;28;20038;-68
2022/07/23 06:06:17;;;;;;;0.90;0.68;;;23.10;55.10;;;;;;6170455;28;20030;-67
2022/07/23 06:09:18;;;;;;;0.75;0.63;;;23.10;55.10;;;;;;6190629;28;20026;-68
2022/07/23 06:12:19;;;;;;;0.80;0.70;;;23.10;55.10;;;;;;6192084;28;20434;-67
2022/07/23 06:15:19;;;;;;;0.45;0.45;;;23.10;55.10;;;;;;6170409;28;20031;-68
2022/07/23 06:18:20;;;;;;;0.60;0.57;;;23.10;55.10;;;;;;6181062;28;20034;-68
2022/07/23 06:21:21;;;;;;;1.20;0.70;;;23.10;55.10;;;;;;6195255;28;20034;-68
2022/07/23 06:24:21;;;;;;;0.90;0.68;;;23.10;55.10;;;;;;6175849;28;20445;-67
2022/07/23 06:27:22;;;;;;;0.60;0.50;;;23.10;55.10;;;;;;6171917;28;20027;-67
2022/07/23 06:30:23;;;;;;;0.52;0.50;;;23.10;55.10;;;;;;6193963;28;20026;-67
2022/07/23 06:33:23;;;;;;;0.50;0.50;;;23.10;55.10;;;;;;6184759;28;20019;-67
2022/07/23 06:36:24;;;;;;;0.52;0.52;;;23.10;55.10;;;;;;6169576;28;20022;-67
2022/07/23 06:39:25;;;;;;;0.85;0.70;;;23.10;55.10;;;;;;6183390;28;20026;-67
2022/07/23 06:42:25;;;;;;;0.80;0.60;;;23.10;55.10;;;;;;6170154;28;20410;-67
2022/07/23 06:45:26;;;;;;;1.20;0.73;;;23.10;55.10;;;;;;6193676;28;20426;-67
2022/07/23 06:48:28;;;;;;;0.65;0.60;;;23.10;55.80;;;;;;6185833;28;20039;-67
2022/07/23 06:51:28;;;;;;;0.52;0.52;;;23.10;55.10;;;;;;6170000;28;20031;-67
2022/07/23 06:54:29;;;;;;;0.70;0.65;;;23.10;55.10;;;;;;6184530;28;20033;-67
2022/07/23 06:57:29;;;;;;;0.73;0.65;;;23.10;55.10;;;;;;6193521;28;20374;-67
2022/07/23 07:00:31;;;;;;;0.80;0.57;;;23.10;55.10;;;;;;6193558;28;20117;-67
2022/07/23 07:03:31;;;;;;;0.50;0.50;;;23.10;55.10;;;;;;6193747;28;20100;-67
2022/07/23 07:06:32;;;;;;;0.85;0.70;;;23.10;55.10;;;;;;6193424;28;20022;-67
2022/07/23 07:09:33;;;;;;;0.73;0.52;;;23.10;55.10;;;;;;6180374;28;20026;-67
2022/07/23 07:12:33;;;;;;;0.70;0.70;;;23.10;55.10;;;;;;6169384;28;20046;-68
2022/07/23 07:15:34;;;;;;;0.70;0.50;;;23.10;55.10;;;;;;6190542;28;20049;-67
2022/07/23 07:18:35;;;;;;;0.70;0.60;;;23.10;55.10;;;;;;6188287;28;20201;-67
2022/07/23 07:21:35;;;;;;;1.13;0.70;;;23.10;55.10;;;;;;6169146;28;20042;-67
2022/07/23 07:24:36;;;;;;;0.75;0.65;;;23.10;55.10;;;;;;6180454;28;20689;-67
2022/07/23 07:27:37;;;;;;;0.55;0.52;;;23.10;55.10;;;;;;6193631;28;20400;-67
2022/07/23 07:30:37;;;;;;;0.60;0.60;;;23.10;55.10;;;;;;6187596;28;20070;-67
2022/07/23 07:33:38;;;;;;;0.55;0.55;;;23.10;55.10;;;;;;6172275;28;20091;-67
2022/07/23 07:36:38;;;;;;;0.60;0.60;;;23.10;55.10;;;;;;6192635;28;20093;-67
2022/07/23 07:39:39;;;;;;;0.80;0.60;;;23.10;55.10;;;;;;6187918;28;20097;-67
2022/07/23 07:42:54;;;;;;;0.52;0.52;;;23.10;55.20;;;;;;6193039;28;20134;-68
2022/07/23 07:45:54;;;;;;;1.03;0.50;;;23.10;55.90;;;;;;6172514;28;20034;-67
2022/07/23 07:48:55;;;;;;;0.98;0.60;;;23.10;55.10;;;;;;6171798;28;20293;-68
2022/07/23 07:51:56;;;;;;;0.82;0.70;;;23.10;55.10;;;;;;6193015;28;20485;-68
2022/07/23 07:54:56;;;;;;;0.50;0.50;;;23.10;55.10;;;;;;6192262;28;20080;-67
2022/07/23 07:57:57;;;;;;;0.93;0.60;;;23.10;55.10;;;;;;6192216;28;20033;-68
2022/07/23 08:00:58;;;;;;;0.60;0.52;;;23.10;55.20;;;;;;6174932;28;20086;-67
2022/07/23 08:03:59;;;;;;;0.52;0.52;;;23.10;55.20;;;;;;6169870;28;20026;-67
2022/07/23 08:06:59;;;;;;;0.40;0.40;;;23.10;55.20;;;;;;6192083;28;20029;-67
2022/07/23 08:10:00;;;;;;;0.50;0.50;;;23.10;55.20;;;;;;6183182;28;20015;-67
2022/07/23 08:13:00;;;;;;;0.50;0.50;;;23.10;55.10;;;;;;6167724;28;20035;-68
2022/07/23 08:16:01;;;;;;;0.50;0.50;;;23.10;55.10;;;;;;6184708;28;20030;-67
2022/07/23 08:19:02;;;;;;;0.63;0.50;;;23.10;55.20;;;;;;6191353;28;20481;-68
2022/07/23 08:22:02;;;;;;;0.60;0.50;;;23.10;55.20;;;;;;6168212;28;20037;-67
2022/07/23 08:25:03;;;;;;;0.50;0.50;;;23.10;55.90;;;;;;6175387;28;20034;-67
2022/07/23 08:28:06;;;;;;;0.90;0.50;;;23.10;55.20;;;;;;6191789;28;20473;-67
2022/07/23 08:31:07;;;;;;;0.55;0.50;;;23.10;55.20;;;;;;6175882;28;20034;-67
2022/07/23 08:34:07;;;;;;;0.40;0.40;;;23.10;55.20;;;;;;6168500;28;20023;-67
2022/07/23 08:37:08;;;;;;;0.43;0.40;;;23.10;55.20;;;;;;6191332;28;20030;-68
2022/07/23 08:40:10;;;;;;;0.60;0.60;;;23.10;55.20;;;;;;6187911;28;20337;-68
2022/07/23 08:43:18;;;;;;;1.25;0.60;;;23.10;55.20;;;;;;6192144;28;20042;-68
2022/07/23 08:46:20;;;;;;;0.47;0.47;;;23.10;55.20;;;;;;6176683;28;20022;-67
2022/07/23 08:49:22;;;;;;;0.73;0.60;;;23.10;55.20;;;;;;6167708;28;20564;-67
2022/07/23 08:52:23;;;;;;;0.47;0.47;;;23.10;55.20;;;;;;6190523;28;20030;-67
2022/07/23 08:55:24;;;;;;;0.50;0.38;;;23.10;55.20;;;;;;6191243;28;20026;-67
2022/07/23 08:58:25;;;;;;;0.60;0.60;;;23.10;55.20;;;;;;6191446;28;20121;-67
2022/07/23 09:01:25;;;;;;;0.40;0.40;;;23.10;55.20;;;;;;6191469;28;20054;-67
2022/07/23 09:04:26;;;;;;;0.85;0.57;;;23.10;55.20;;;;;;6191591;28;20033;-67
2022/07/23 09:07:27;;;;;;;0.70;0.43;;;23.10;55.20;;;;;;6170132;28;20062;-68
2022/07/23 09:10:27;;;;;;;0.60;0.52;;;23.10;55.30;;;;;;6172352;28;20029;-67
2022/07/23 09:13:35;;;;;;;0.60;0.60;;;23.10;55.20;;;;;;6191815;28;20516;-67
2022/07/23 09:16:36;;;;;;;0.50;0.50;;;23.10;55.20;;;;;;6178032;28;20052;-67
2022/07/23 09:19:37;;;;;;;0.28;0.28;;;23.10;55.20;;;;;;6167008;28;20111;-67
2022/07/23 09:22:39;;;;;;;0.98;0.60;;;23.10;55.20;;;;;;6188345;28;20429;-68
2022/07/23 09:25:40;;;;;;;0.88;0.60;;;23.10;55.20;;;;;;6192495;28;20014;-67
2022/07/23 09:28:51;;;;;;;0.60;0.50;;;23.10;55.20;;;;;;6196134;28;20037;-68
2022/07/23 09:31:55;;;;;;;0.60;0.57;;;23.10;55.30;;;;;;6193822;28;20058;-67
2022/07/23 09:34:56;;;;;;;0.57;0.50;;;23.10;55.30;;;;;;6196191;28;20625;-67
2022/07/23 09:38:03;;;;;;;0.45;0.45;;;23.10;55.30;;;;;;6174097;28;20051;-67
2022/07/23 09:41:11;;;;;;;0.38;0.38;;;23.10;55.30;;;;;;6182316;28;20085;-67
2022/07/23 09:44:20;;;;;;;0.50;0.50;;;23.10;55.30;;;;;;6171627;28;20034;-67
2022/07/23 09:47:22;;;;;;;0.57;0.50;;;23.10;55.20;;;;;;6186812;28;20457;-67
2022/07/23 09:50:23;;;;;;;0.80;0.60;;;23.10;55.30;;;;;;6195071;28;20062;-67
2022/07/23 09:53:25;;;;;;;0.60;0.47;;;23.10;55.30;;;;;;6174457;28;20114;-67
2022/07/23 09:56:27;;;;;;;0.80;0.50;;;23.10;55.30;;;;;;6195477;28;20037;-68
2022/07/23 09:59:33;;;;;;;0.50;0.50;;;23.10;55.30;;;;;;6195025;28;20035;-67
2022/07/23 10:02:33;;;;;;;0.68;0.50;;;23.10;55.30;;;;;;6170513;28;20086;-67
2022/07/23 10:05:36;;;;;;;0.50;0.50;;;23.10;55.30;;;;;;6191859;28;20109;-67
2022/07/23 10:08:41;;;;;;;0.47;0.43;;;23.10;55.30;;;;;;6193620;28;20429;-67
2022/07/23 10:11:42;;;;;;;1.35;0.70;;;23.10;55.50;;;;;;6194116;28;20054;-67
2022/07/23 10:14:44;;;;;;;2.00;1.02;;;23.10;55.80;;;;;;6169893;28;20654;-67
2022/07/23 10:17:45;;;;;;;4.55;1.30;;;23.10;56.00;;;;;;6183880;28;20034;-67
2022/07/23 10:20:48;;;;;;;2.45;0.98;;;23.00;56.00;;;;;;6179488;28;20150;-67
2022/07/23 10:24:29;;;;;;;2.55;1.30;;;23.10;55.80;;;;;;6191261;28;20509;-67
2022/07/23 10:28:15;;;;;;;2.50;1.38;;;23.10;55.70;;;;;;6182811;28;20034;-67
2022/07/23 10:31:25;;;;;;;2.55;1.20;;;23.10;55.70;;;;;;6170107;28;20023;-67
2022/07/23 10:34:28;;;;;;;2.97;1.15;;;23.10;55.70;;;;;;6194141;28;20033;-67
2022/07/23 10:37:48;;;;;;;4.20;1.70;;;23.10;55.70;;;;;;6183197;28;20500;-68
2022/07/23 10:41:01;;;;;;;3.28;1.23;;;23.10;55.70;;;;;;6191435;28;20035;-67
2022/07/23 10:44:16;;;;;;;3.33;1.50;;;23.10;55.60;;;;;;6188622;28;20019;-67
2022/07/23 10:47:42;;;;;;;5.22;1.40;;;23.00;55.60;;;;;;6175897;28;20041;-68
2022/07/23 10:50:43;;;;;;;6.45;1.63;;;23.00;55.70;;;;;;6193279;28;20137;-68
2022/07/23 10:54:02;;;;;;;2.67;1.23;;;23.00;55.70;;;;;;6179224;28;20515;-68
2022/07/23 10:57:08;;;;;;;6.60;1.70;;;23.00;55.70;;;;;;6194654;28;20026;-68
2022/07/23 11:00:14;;;;;;;5.70;1.95;;;23.00;55.50;;;;;;6193075;28;20394;-68
2022/07/23 11:03:36;;;;;;;3.55;1.55;;;23.00;55.50;;;;;;6180044;28;20073;-68
2022/07/23 11:06:49;;;;;;;3.08;1.58;;;23.00;55.40;;;;;;6168612;28;20117;-68
2022/07/23 11:09:49;;;;;;;3.92;1.25;;;23.00;55.30;;;;;;6169142;28;20019;-67
2022/07/23 11:12:50;;;;;;;2.95;1.48;;;23.00;55.40;;;;;;6175851;28;20105;-67
2022/07/23 11:16:15;;;;;;;3.95;1.63;;;23.00;55.40;;;;;;6192823;28;20077;-67
2022/07/23 11:19:15;;;;;;;2.90;1.33;;;23.00;55.40;;;;;;6192113;28;20045;-68
2022/07/23 11:22:35;;;;;;;4.80;1.83;;;23.00;55.50;;;;;;6188863;28;20027;-67
2022/07/23 11:25:36;;;;;;;2.80;1.23;;;23.00;55.40;;;;;;6182353;28;20030;-67
2022/07/23 11:28:37;;;;;;;5.85;1.65;;;23.00;55.40;;;;;;6191824;28;20033;-67
2022/07/23 11:31:50;;;;;;;3.33;1.40;;;23.00;55.40;;;;;;6178520;28;20027;-67
2022/07/23 11:34:53;;;;;;;4.75;1.20;;;23.00;55.40;;;;;;6168228;28;20042;-68
2022/07/23 11:38:03;;;;;;;4.18;1.23;;;23.00;55.40;;;;;;6172599;28;20040;-68
2022/07/23 11:41:03;;;;;;;4.78;1.60;;;23.00;55.30;;;;;;6191511;28;20037;-67
2022/07/23 11:44:04;;;;;;;5.07;1.52;;;23.00;55.30;;;;;;6177943;28;20019;-68
2022/07/23 11:47:10;;;;;;;3.97;1.52;;;23.00;55.30;;;;;;6167239;28;20532;-67
2022/07/23 11:50:11;;;;;;;4.05;1.40;;;23.00;55.30;;;;;;6189069;28;20370;-67
2022/07/23 11:53:12;;;;;;;2.97;1.10;;;23.00;55.30;;;;;;6180975;28;20058;-68
2022/07/23 11:56:12;;;;;;;5.53;1.75;;;23.00;55.30;;;;;;6177854;28;20019;-67
2022/07/23 11:59:15;;;;;;;5.80;1.90;;;23.00;55.30;;;;;;6191303;28;20049;-67
2022/07/23 12:02:15;;;;;;;6.18;1.88;;;23.10;55.20;;;;;;6190589;28;20077;-68
2022/07/23 12:05:22;;;;;;;2.58;1.50;;;23.10;55.20;;;;;;6170127;28;20363;-67
2022/07/23 12:08:23;;;;;;;3.58;1.55;;;23.10;55.20;;;;;;6171561;28;20030;-68
2022/07/23 12:11:23;;;;;;;3.08;1.45;;;23.10;55.20;;;;;;6190872;28;20026;-68
2022/07/23 12:14:24;;;;;;;6.60;2.10;;;23.00;55.30;;;;;;6178452;28;20122;-67
2022/07/23 12:17:32;;;;;;;4.30;1.67;;;23.00;55.30;;;;;;6158228;28;20030;-67
2022/07/23 12:20:45;;;;;;;3.83;1.80;;;23.10;56.00;;;;;;6170840;28;20088;-68
2022/07/23 12:23:48;;;;;;;6.40;1.77;;;23.10;55.20;;;;;;6186440;28;20121;-68
2022/07/23 12:27:09;;;;;;;4.82;1.70;;;23.10;55.30;;;;;;6187311;28;20015;-67
2022/07/23 12:30:19;;;;;;;3.60;1.70;;;23.10;55.30;;;;;;6168567;28;20077;-67
2022/07/23 12:33:34;;;;;;;3.95;1.73;;;23.10;55.20;;;;;;6188972;28;20031;-67
2022/07/23 12:36:39;;;;;;;;;;;23.00;55.20;;;;;;6167262;28;20089;-67
2022/07/23 12:39:40;;;;;;;3.23;1.87;;;23.10;55.20;;;;;;6178480;28;19914;-68
2022/07/23 12:42:44;;;;;;;4.82;1.70;;;23.10;55.30;;;;;;6190175;28;20496;-68
2022/07/23 12:45:50;;;;;;;3.47;1.52;;;23.10;55.30;;;;;;6171658;28;20490;-68
2022/07/23 12:48:52;;;;;;;4.90;1.50;;;23.10;55.30;;;;;;6169531;28;20046;-68
2022/07/23 12:51:53;;;;;;;3.97;1.60;;;23.10;55.30;;;;;;6190300;28;20081;-67
2022/07/23 12:54:54;;;;;;;4.75;1.70;;;23.10;55.30;;;;;;6189536;28;20292;-67
2022/07/23 12:58:05;;;;;;;4.43;1.80;;;23.10;55.30;;;;;;6189532;28;20246;-68
2022/07/23 13:01:06;;;;;;;4.68;1.52;;;23.10;55.20;;;;;;6194675;28;20030;-68
2022/07/23 13:04:11;;;;;;;3.53;1.52;;;23.10;55.60;;;;;;6194405;28;20336;-68
2022/07/23 13:07:11;;;;;;;;;;;23.10;55.60;;;;;;6196733;28;20041;-68
2022/07/23 13:10:12;;;;;;;3.78;1.58;;;23.10;55.40;;;;;;6184923;28;19914;-68
2022/07/23 13:13:13;;;;;;;4.47;1.80;;;23.10;55.40;;;;;;6171197;28;20120;-68
2022/07/23 13:16:14;;;;;;;3.65;1.73;;;23.10;55.30;;;;;;6186151;28;20026;-68
2022/07/23 13:19:15;;;;;;;3.90;1.80;;;23.10;55.20;;;;;;6192910;28;20093;-68
2022/07/23 13:22:16;;;;;;;4.03;1.60;;;23.10;55.10;;;;;;6171435;28;20026;-68
2022/07/23 13:25:17;;;;;;;3.78;1.52;;;23.10;55.10;;;;;;6183363;28;20026;-68
2022/07/23 13:28:20;;;;;;;3.85;1.83;;;23.10;55.10;;;;;;6194205;28;20509;-68
2022/07/23 13:31:21;;;;;;;7.03;1.50;;;23.00;54.90;;;;;;6177346;28;20296;-68
2022/07/23 13:34:21;;;;;;;4.47;1.67;;;23.10;55.60;;;;;;6186808;28;20209;-68
2022/07/23 13:37:22;;;;;;;4.90;1.67;;;23.10;54.90;;;;;;6171238;28;20031;-68
2022/07/23 13:40:23;;;;;;;3.92;2.00;;;23.10;55.00;;;;;;6178894;28;20040;-68
2022/07/23 13:43:25;;;;;;;4.90;1.75;;;23.10;55.10;;;;;;6194978;28;20022;-68
2022/07/23 13:46:26;;;;;;;2.53;1.40;;;23.10;55.10;;;;;;6177776;28;20023;-68
2022/07/23 13:49:26;;;;;;;4.65;2.08;;;23.10;55.10;;;;;;6170302;28;20066;-69
2022/07/23 13:52:27;;;;;;;3.08;1.50;;;23.10;55.10;;;;;;6194262;28;20042;-69
2022/07/23 13:55:28;;;;;;;3.22;1.35;;;23.10;55.10;;;;;;6194643;28;20038;-69
2022/07/23 13:58:28;;;;;;;3.97;1.38;;;23.00;55.00;;;;;;6194222;28;20217;-69
2022/07/23 14:01:29;;;;;;;3.10;1.70;;;23.10;55.10;;;;;;6194329;28;20448;-69
2022/07/23 14:04:30;;;;;;;2.33;1.40;;;23.10;55.10;;;;;;6193967;28;20022;-68
2022/07/23 14:07:30;;;;;;;3.33;1.45;;;23.10;55.10;;;;;;6171552;28;20062;-68
2022/07/23 14:10:31;;;;;;;2.67;1.50;;;23.10;55.10;;;;;;6174729;28;20018;-69
2022/07/23 14:13:32;;;;;;;2.22;1.27;;;23.10;55.20;;;;;;6193580;28;20514;-68
2022/07/23 14:16:33;;;;;;;2.00;1.00;;;23.10;55.20;;;;;;6192258;28;20034;-68
2022/07/23 14:19:34;;;;;;;2.75;1.15;;;23.10;55.20;;;;;;6188387;28;21944;-69
2022/07/23 14:22:35;;;;;;;2.97;1.40;;;23.10;55.30;;;;;;6169245;28;20085;-68
2022/07/23 14:25:36;;;;;;;2.58;1.10;;;23.10;55.20;;;;;;6203894;28;20019;-68
2022/07/23 14:28:37;;;;;;;1.65;1.17;;;23.10;55.50;;;;;;6164305;28;22152;-68
2022/07/23 14:31:37;;;;;;;3.03;1.23;;;23.20;55.30;;;;;;6152512;28;20053;-69
2022/07/23 14:34:38;;;;;;;2.13;1.25;;;23.20;55.40;;;;;;6182583;28;20033;-68
2022/07/23 14:37:39;;;;;;;2.00;1.20;;;23.20;55.30;;;;;;6173773;28;20591;-68
2022/07/23 14:40:41;;;;;;;1.60;1.13;;;23.30;55.30;;;;;;6192232;28;20039;-68
2022/07/23 14:43:42;;;;;;;1.70;1.10;;;23.30;55.20;;;;;;6183146;28;20076;-68
2022/07/23 14:46:43;;;;;;;2.35;1.00;;;23.30;55.30;;;;;;6193943;28;20034;-68
2022/07/23 14:49:44;;;;;;;1.83;0.90;;;23.40;55.50;;;;;;6193220;28;20058;-68
2022/07/23 14:52:45;;;;;;;2.20;1.10;;;23.40;55.30;;;;;;6175090;28;20509;-68
2022/07/23 14:55:46;;;;;;;4.82;1.13;;;23.40;55.20;;;;;;6187657;28;20026;-68
2022/07/23 14:58:47;;;;;;;1.30;1.00;;;23.40;55.30;;;;;;6174441;28;20039;-68
2022/07/23 15:01:48;;;;;;;1.27;0.95;;;23.40;55.30;;;;;;6177191;28;20092;-68
2022/07/23 15:04:48;;;;;;;1.20;0.85;;;23.40;55.30;;;;;;6192025;28;20018;-68
2022/07/23 15:07:49;;;;;;;3.10;1.00;;;23.40;55.30;;;;;;6192200;28;20030;-68
2022/07/23 15:10:50;;;;;;;1.02;0.70;;;23.30;55.20;;;;;;6191977;28;20366;-68
2022/07/23 15:13:51;;;;;;;2.47;1.02;;;23.40;55.30;;;;;;6167905;28;20725;-68
2022/07/23 15:16:52;;;;;;;2.88;1.02;;;23.40;55.40;;;;;;6188715;28;20026;-69
2022/07/23 15:19:52;;;;;;;1.10;0.80;;;23.40;55.30;;;;;;6192164;28;20478;-69
2022/07/23 15:22:53;;;;;;;1.85;1.00;;;23.50;55.30;;;;;;6176173;28;20505;-69
2022/07/23 15:25:55;;;;;;;1.27;1.00;;;23.40;55.30;;;;;;6184098;28;20109;-69
2022/07/23 15:28:58;;;;;;;1.45;0.85;;;23.40;55.30;;;;;;6191889;28;20092;-69
2022/07/23 15:31:59;;;;;;;1.05;0.95;;;23.40;55.40;;;;;;6185053;28;20069;-68
2022/07/23 15:35:00;;;;;;;1.25;0.93;;;23.40;55.40;;;;;;6190625;28;20386;-68
2022/07/23 15:38:01;;;;;;;1.20;0.93;;;23.40;55.30;;;;;;6177391;28;20022;-70
2022/07/23 15:41:02;;;;;;;1.30;0.80;;;23.40;55.40;;;;;;6167732;28;20060;-69
2022/07/23 15:44:03;;;;;;;1.13;0.73;;;23.50;55.30;;;;;;6189063;28;20031;-68
2022/07/23 15:47:03;;;;;;;4.15;0.80;;;23.50;55.30;;;;;;6191274;28;20030;-68
2022/07/23 15:50:04;;;;;;;1.13;0.80;;;23.50;55.40;;;;;;6191251;28;20059;-69
2022/07/23 15:53:05;;;;;;;1.25;1.00;;;23.50;55.40;;;;;;6191104;28;20027;-69